sensor_id;sensor_type;location;lat;lon;timestamp;P1;durP1;ratioP1;P2;durP2;ratioP2
15952;SDS011;8075;47.766;8.846;2023-04-25T00:00:32;2.63;;;1.50;;
15952;SDS011;8075;47.766;8.846;2023-04-25T00:02:58;1.67;;;1.33;;
15952;SDS011;8075;47.766;8.846;2023-04-25T00:05:25;2.55;;;1.42;;
15952;SDS011;8075;47.766;8.846;2023-04-25T00:07:51;2.22;;;1.30;;
15952;SDS011;8075;47.766;8.846;2023-04-25T00:10:18;1.77;;;1.27;;
15952;SDS011;8075;47.766;8.846;2023-04-25T00:12:44;2.08;;;1.30;;
15952;SDS011;8075;47.766;8.846;2023-04-25T00:15:10;1.70;;;1.00;;
15952;SDS011;8075;47.766;8.846;2023-04-25T00:17:37;1.15;;;1.02;;
15952;SDS011;8075;47.766;8.846;2023-04-25T00:20:06;1.98;;;1.27;;
15952;SDS011;8075;47.766;8.846;2023-04-25T00:22:35;1.60;;;1.10;;
15952;SDS011;8075;47.766;8.846;2023-04-25T00:25:05;1.40;;;1.10;;
15952;SDS011;8075;47.766;8.846;2023-04-25T00:27:31;1.38;;;0.88;;
15952;SDS011;8075;47.766;8.846;2023-04-25T00:29:57;1.13;;;0.90;;
15952;SDS011;8075;47.766;8.846;2023-04-25T00:32:23;1.30;;;0.95;;
15952;SDS011;8075;47.766;8.846;2023-04-25T00:34:49;1.38;;;1.10;;
15952;SDS011;8075;47.766;8.846;2023-04-25T00:37:15;1.52;;;1.17;;
15952;SDS011;8075;47.766;8.846;2023-04-25T00:39:43;1.45;;;0.95;;
15952;SDS011;8075;47.766;8.846;2023-04-25T00:42:09;1.70;;;1.02;;
15952;SDS011;8075;47.766;8.846;2023-04-25T00:44:35;2.15;;;1.17;;
15952;SDS011;8075;47.766;8.846;2023-04-25T00:47:02;2.43;;;1.30;;
15952;SDS011;8075;47.766;8.846;2023-04-25T00:49:28;1.90;;;1.40;;
15952;SDS011;8075;47.766;8.846;2023-04-25T00:51:54;2.08;;;1.40;;
15952;SDS011;8075;47.766;8.846;2023-04-25T00:54:21;3.40;;;1.67;;
15952;SDS011;8075;47.766;8.846;2023-04-25T00:56:47;2.03;;;1.60;;
15952;SDS011;8075;47.766;8.846;2023-04-25T00:59:13;2.33;;;1.45;;
15952;SDS011;8075;47.766;8.846;2023-04-25T01:01:39;2.97;;;2.08;;
15952;SDS011;8075;47.766;8.846;2023-04-25T01:04:05;2.90;;;2.03;;
15952;SDS011;8075;47.766;8.846;2023-04-25T01:06:31;3.13;;;1.80;;
15952;SDS011;8075;47.766;8.846;2023-04-25T01:08:57;2.80;;;1.90;;
15952;SDS011;8075;47.766;8.846;2023-04-25T01:11:24;3.00;;;1.80;;
15952;SDS011;8075;47.766;8.846;2023-04-25T01:13:50;2.13;;;1.70;;
15952;SDS011;8075;47.766;8.846;2023-04-25T01:16:16;4.28;;;2.15;;
15952;SDS011;8075;47.766;8.846;2023-04-25T01:18:42;3.88;;;1.98;;
15952;SDS011;8075;47.766;8.846;2023-04-25T01:21:10;3.65;;;2.10;;
15952;SDS011;8075;47.766;8.846;2023-04-25T01:23:37;2.50;;;1.80;;
15952;SDS011;8075;47.766;8.846;2023-04-25T01:26:03;2.95;;;1.80;;
15952;SDS011;8075;47.766;8.846;2023-04-25T01:28:29;3.80;;;2.08;;
15952;SDS011;8075;47.766;8.846;2023-04-25T01:30:56;2.33;;;1.95;;
15952;SDS011;8075;47.766;8.846;2023-04-25T01:33:22;2.75;;;2.00;;
15952;SDS011;8075;47.766;8.846;2023-04-25T01:35:48;4.20;;;2.20;;
15952;SDS011;8075;47.766;8.846;2023-04-25T01:38:14;3.70;;;2.42;;
15952;SDS011;8075;47.766;8.846;2023-04-25T01:40:40;3.85;;;2.30;;
15952;SDS011;8075;47.766;8.846;2023-04-25T01:43:07;2.83;;;2.33;;
15952;SDS011;8075;47.766;8.846;2023-04-25T01:45:36;4.13;;;2.22;;
15952;SDS011;8075;47.766;8.846;2023-04-25T01:48:05;2.38;;;2.10;;
15952;SDS011;8075;47.766;8.846;2023-04-25T01:50:31;4.13;;;2.33;;
15952;SDS011;8075;47.766;8.846;2023-04-25T01:52:57;3.28;;;2.40;;
15952;SDS011;8075;47.766;8.846;2023-04-25T01:55:23;3.53;;;2.28;;
15952;SDS011;8075;47.766;8.846;2023-04-25T01:57:49;3.42;;;2.42;;
15952;SDS011;8075;47.766;8.846;2023-04-25T02:00:15;5.30;;;2.55;;
15952;SDS011;8075;47.766;8.846;2023-04-25T02:02:41;2.40;;;1.98;;
15952;SDS011;8075;47.766;8.846;2023-04-25T02:05:07;2.78;;;2.25;;
15952;SDS011;8075;47.766;8.846;2023-04-25T02:07:33;3.47;;;2.45;;
15952;SDS011;8075;47.766;8.846;2023-04-25T02:09:59;3.88;;;2.22;;
15952;SDS011;8075;47.766;8.846;2023-04-25T02:12:26;4.45;;;2.47;;
15952;SDS011;8075;47.766;8.846;2023-04-25T02:14:53;3.10;;;2.53;;
15952;SDS011;8075;47.766;8.846;2023-04-25T02:17:19;3.80;;;2.40;;
15952;SDS011;8075;47.766;8.846;2023-04-25T02:19:46;3.70;;;2.42;;
15952;SDS011;8075;47.766;8.846;2023-04-25T02:22:12;2.85;;;2.55;;
15952;SDS011;8075;47.766;8.846;2023-04-25T02:24:38;3.40;;;2.53;;
15952;SDS011;8075;47.766;8.846;2023-04-25T02:27:04;3.70;;;2.28;;
15952;SDS011;8075;47.766;8.846;2023-04-25T02:29:30;2.90;;;2.13;;
15952;SDS011;8075;47.766;8.846;2023-04-25T02:31:56;2.88;;;2.40;;
15952;SDS011;8075;47.766;8.846;2023-04-25T02:34:22;4.45;;;2.30;;
15952;SDS011;8075;47.766;8.846;2023-04-25T02:36:48;3.45;;;2.20;;
15952;SDS011;8075;47.766;8.846;2023-04-25T02:39:17;3.55;;;2.28;;
15952;SDS011;8075;47.766;8.846;2023-04-25T02:41:43;4.03;;;2.20;;
15952;SDS011;8075;47.766;8.846;2023-04-25T02:44:09;3.47;;;2.28;;
15952;SDS011;8075;47.766;8.846;2023-04-25T02:46:35;2.42;;;2.10;;
15952;SDS011;8075;47.766;8.846;2023-04-25T02:49:01;5.03;;;2.40;;
15952;SDS011;8075;47.766;8.846;2023-04-25T02:51:27;2.97;;;2.08;;
15952;SDS011;8075;47.766;8.846;2023-04-25T02:53:53;3.08;;;2.28;;
15952;SDS011;8075;47.766;8.846;2023-04-25T02:56:19;3.97;;;2.30;;
15952;SDS011;8075;47.766;8.846;2023-04-25T02:58:45;4.65;;;2.70;;
15952;SDS011;8075;47.766;8.846;2023-04-25T03:01:11;3.85;;;2.58;;
15952;SDS011;8075;47.766;8.846;2023-04-25T03:03:37;4.13;;;2.30;;
15952;SDS011;8075;47.766;8.846;2023-04-25T03:06:03;4.28;;;2.50;;
15952;SDS011;8075;47.766;8.846;2023-04-25T03:08:29;3.47;;;2.63;;
15952;SDS011;8075;47.766;8.846;2023-04-25T03:10:57;5.07;;;2.80;;
15952;SDS011;8075;47.766;8.846;2023-04-25T03:13:23;3.83;;;2.88;;
15952;SDS011;8075;47.766;8.846;2023-04-25T03:15:49;4.28;;;2.80;;
15952;SDS011;8075;47.766;8.846;2023-04-25T03:18:15;6.75;;;4.50;;
15952;SDS011;8075;47.766;8.846;2023-04-25T03:20:41;7.15;;;4.22;;
15952;SDS011;8075;47.766;8.846;2023-04-25T03:23:07;5.03;;;3.30;;
15952;SDS011;8075;47.766;8.846;2023-04-25T03:25:33;4.55;;;3.05;;
15952;SDS011;8075;47.766;8.846;2023-04-25T03:27:59;3.00;;;2.70;;
15952;SDS011;8075;47.766;8.846;2023-04-25T03:30:26;3.47;;;2.67;;
15952;SDS011;8075;47.766;8.846;2023-04-25T03:32:52;2.78;;;2.30;;
15952;SDS011;8075;47.766;8.846;2023-04-25T03:35:18;2.60;;;2.10;;
15952;SDS011;8075;47.766;8.846;2023-04-25T03:37:43;4.95;;;2.20;;
15952;SDS011;8075;47.766;8.846;2023-04-25T03:40:10;3.78;;;2.75;;
15952;SDS011;8075;47.766;8.846;2023-04-25T03:42:36;3.20;;;2.40;;
15952;SDS011;8075;47.766;8.846;2023-04-25T03:45:02;3.60;;;2.75;;
15952;SDS011;8075;47.766;8.846;2023-04-25T03:47:28;3.08;;;2.33;;
15952;SDS011;8075;47.766;8.846;2023-04-25T03:49:54;3.15;;;2.33;;
15952;SDS011;8075;47.766;8.846;2023-04-25T03:52:20;2.55;;;2.10;;
15952;SDS011;8075;47.766;8.846;2023-04-25T03:54:46;5.13;;;2.40;;
15952;SDS011;8075;47.766;8.846;2023-04-25T03:57:12;3.00;;;2.20;;
15952;SDS011;8075;47.766;8.846;2023-04-25T03:59:38;3.35;;;2.17;;
15952;SDS011;8075;47.766;8.846;2023-04-25T04:02:04;4.85;;;2.40;;
15952;SDS011;8075;47.766;8.846;2023-04-25T04:04:31;3.22;;;2.38;;
15952;SDS011;8075;47.766;8.846;2023-04-25T04:06:57;3.00;;;1.98;;
15952;SDS011;8075;47.766;8.846;2023-04-25T04:09:22;3.30;;;2.33;;
15952;SDS011;8075;47.766;8.846;2023-04-25T04:11:49;2.42;;;2.22;;
15952;SDS011;8075;47.766;8.846;2023-04-25T04:14:14;3.67;;;2.78;;
15952;SDS011;8075;47.766;8.846;2023-04-25T04:16:41;2.53;;;2.33;;
15952;SDS011;8075;47.766;8.846;2023-04-25T04:19:07;3.63;;;2.30;;
15952;SDS011;8075;47.766;8.846;2023-04-25T04:21:33;3.92;;;2.35;;
15952;SDS011;8075;47.766;8.846;2023-04-25T04:23:59;2.95;;;2.20;;
15952;SDS011;8075;47.766;8.846;2023-04-25T04:26:25;3.47;;;2.17;;
15952;SDS011;8075;47.766;8.846;2023-04-25T04:28:51;2.63;;;2.08;;
15952;SDS011;8075;47.766;8.846;2023-04-25T04:31:22;2.83;;;2.30;;
15952;SDS011;8075;47.766;8.846;2023-04-25T04:33:48;2.95;;;2.25;;
15952;SDS011;8075;47.766;8.846;2023-04-25T04:36:15;3.17;;;2.40;;
15952;SDS011;8075;47.766;8.846;2023-04-25T04:38:44;2.38;;;2.17;;
15952;SDS011;8075;47.766;8.846;2023-04-25T04:41:10;2.38;;;2.10;;
15952;SDS011;8075;47.766;8.846;2023-04-25T04:43:36;3.03;;;2.40;;
15952;SDS011;8075;47.766;8.846;2023-04-25T04:46:04;3.00;;;2.28;;
15952;SDS011;8075;47.766;8.846;2023-04-25T04:48:31;3.13;;;2.20;;
15952;SDS011;8075;47.766;8.846;2023-04-25T04:51:00;4.28;;;2.58;;
15952;SDS011;8075;47.766;8.846;2023-04-25T04:53:26;2.78;;;2.30;;
15952;SDS011;8075;47.766;8.846;2023-04-25T04:55:52;2.43;;;2.23;;
15952;SDS011;8075;47.766;8.846;2023-04-25T04:58:18;2.60;;;2.10;;
15952;SDS011;8075;47.766;8.846;2023-04-25T05:00:44;2.55;;;2.30;;
15952;SDS011;8075;47.766;8.846;2023-04-25T05:03:11;2.88;;;2.42;;
15952;SDS011;8075;47.766;8.846;2023-04-25T05:05:38;2.85;;;2.47;;
15952;SDS011;8075;47.766;8.846;2023-04-25T05:08:05;3.55;;;2.40;;
15952;SDS011;8075;47.766;8.846;2023-04-25T05:10:31;3.10;;;2.38;;
15952;SDS011;8075;47.766;8.846;2023-04-25T05:12:57;4.03;;;2.63;;
15952;SDS011;8075;47.766;8.846;2023-04-25T05:15:23;4.20;;;2.65;;
15952;SDS011;8075;47.766;8.846;2023-04-25T05:17:49;3.45;;;2.50;;
15952;SDS011;8075;47.766;8.846;2023-04-25T05:20:15;4.43;;;2.80;;
15952;SDS011;8075;47.766;8.846;2023-04-25T05:22:43;3.38;;;3.15;;
15952;SDS011;8075;47.766;8.846;2023-04-25T05:25:09;3.38;;;2.92;;
15952;SDS011;8075;47.766;8.846;2023-04-25T05:27:35;3.10;;;2.80;;
15952;SDS011;8075;47.766;8.846;2023-04-25T05:30:01;3.75;;;3.28;;
15952;SDS011;8075;47.766;8.846;2023-04-25T05:32:28;4.20;;;3.55;;
15952;SDS011;8075;47.766;8.846;2023-04-25T05:34:54;3.45;;;3.15;;
15952;SDS011;8075;47.766;8.846;2023-04-25T05:37:19;3.17;;;2.95;;
15952;SDS011;8075;47.766;8.846;2023-04-25T05:39:45;3.15;;;2.95;;
15952;SDS011;8075;47.766;8.846;2023-04-25T05:42:11;3.50;;;3.20;;
15952;SDS011;8075;47.766;8.846;2023-04-25T05:44:37;8.23;;;6.78;;
15952;SDS011;8075;47.766;8.846;2023-04-25T05:47:03;5.90;;;5.25;;
15952;SDS011;8075;47.766;8.846;2023-04-25T05:49:29;6.25;;;5.53;;
15952;SDS011;8075;47.766;8.846;2023-04-25T05:51:55;3.78;;;3.47;;
15952;SDS011;8075;47.766;8.846;2023-04-25T05:54:21;5.15;;;4.72;;
15952;SDS011;8075;47.766;8.846;2023-04-25T05:56:47;3.60;;;3.30;;
15952;SDS011;8075;47.766;8.846;2023-04-25T05:59:13;3.60;;;3.30;;
15952;SDS011;8075;47.766;8.846;2023-04-25T06:01:39;4.38;;;3.25;;
15952;SDS011;8075;47.766;8.846;2023-04-25T06:04:05;3.45;;;3.15;;
15952;SDS011;8075;47.766;8.846;2023-04-25T06:06:31;4.22;;;3.22;;
15952;SDS011;8075;47.766;8.846;2023-04-25T06:08:57;3.33;;;3.03;;
15952;SDS011;8075;47.766;8.846;2023-04-25T06:11:23;3.28;;;2.97;;
15952;SDS011;8075;47.766;8.846;2023-04-25T06:13:49;3.00;;;2.70;;
15952;SDS011;8075;47.766;8.846;2023-04-25T06:16:15;3.75;;;2.70;;
15952;SDS011;8075;47.766;8.846;2023-04-25T06:18:41;2.72;;;2.40;;
15952;SDS011;8075;47.766;8.846;2023-04-25T06:21:07;4.03;;;2.75;;
15952;SDS011;8075;47.766;8.846;2023-04-25T06:23:33;3.13;;;2.70;;
15952;SDS011;8075;47.766;8.846;2023-04-25T06:25:59;3.63;;;2.88;;
15952;SDS011;8075;47.766;8.846;2023-04-25T06:28:25;2.80;;;2.60;;
15952;SDS011;8075;47.766;8.846;2023-04-25T06:30:51;3.43;;;2.70;;
15952;SDS011;8075;47.766;8.846;2023-04-25T06:33:17;3.03;;;2.83;;
15952;SDS011;8075;47.766;8.846;2023-04-25T06:35:45;3.35;;;3.05;;
15952;SDS011;8075;47.766;8.846;2023-04-25T06:38:11;3.75;;;3.30;;
15952;SDS011;8075;47.766;8.846;2023-04-25T06:40:37;3.83;;;3.33;;
15952;SDS011;8075;47.766;8.846;2023-04-25T06:43:03;4.35;;;3.47;;
15952;SDS011;8075;47.766;8.846;2023-04-25T06:45:29;4.15;;;3.53;;
15952;SDS011;8075;47.766;8.846;2023-04-25T06:47:55;4.55;;;3.30;;
15952;SDS011;8075;47.766;8.846;2023-04-25T06:50:21;4.38;;;3.75;;
15952;SDS011;8075;47.766;8.846;2023-04-25T06:52:47;3.80;;;3.42;;
15952;SDS011;8075;47.766;8.846;2023-04-25T06:55:13;4.13;;;3.70;;
15952;SDS011;8075;47.766;8.846;2023-04-25T06:57:39;5.00;;;4.50;;
15952;SDS011;8075;47.766;8.846;2023-04-25T07:00:05;5.37;;;4.63;;
15952;SDS011;8075;47.766;8.846;2023-04-25T07:02:34;6.82;;;4.60;;
15952;SDS011;8075;47.766;8.846;2023-04-25T07:05:00;4.97;;;4.38;;
15952;SDS011;8075;47.766;8.846;2023-04-25T07:07:29;6.00;;;4.53;;
15952;SDS011;8075;47.766;8.846;2023-04-25T07:09:55;5.10;;;4.10;;
15952;SDS011;8075;47.766;8.846;2023-04-25T07:12:21;4.28;;;3.10;;
15952;SDS011;8075;47.766;8.846;2023-04-25T07:14:47;4.50;;;2.88;;
15952;SDS011;8075;47.766;8.846;2023-04-25T07:17:13;3.43;;;2.87;;
15952;SDS011;8075;47.766;8.846;2023-04-25T07:19:40;5.72;;;3.30;;
15952;SDS011;8075;47.766;8.846;2023-04-25T07:22:06;3.38;;;3.05;;
15952;SDS011;8075;47.766;8.846;2023-04-25T07:24:32;4.40;;;3.65;;
15952;SDS011;8075;47.766;8.846;2023-04-25T07:26:58;5.17;;;4.67;;
15952;SDS011;8075;47.766;8.846;2023-04-25T07:29:25;4.18;;;3.78;;
15952;SDS011;8075;47.766;8.846;2023-04-25T07:31:51;5.18;;;4.38;;
15952;SDS011;8075;47.766;8.846;2023-04-25T07:34:18;3.85;;;3.45;;
15952;SDS011;8075;47.766;8.846;2023-04-25T07:36:44;3.50;;;3.20;;
15952;SDS011;8075;47.766;8.846;2023-04-25T07:39:10;2.95;;;2.67;;
15952;SDS011;8075;47.766;8.846;2023-04-25T07:41:36;2.88;;;2.35;;
15952;SDS011;8075;47.766;8.846;2023-04-25T07:44:02;3.40;;;2.45;;
15952;SDS011;8075;47.766;8.846;2023-04-25T07:46:28;6.20;;;5.17;;
15952;SDS011;8075;47.766;8.846;2023-04-25T07:48:54;6.22;;;5.63;;
15952;SDS011;8075;47.766;8.846;2023-04-25T07:51:20;6.10;;;5.60;;
15952;SDS011;8075;47.766;8.846;2023-04-25T07:53:47;4.68;;;4.28;;
15952;SDS011;8075;47.766;8.846;2023-04-25T07:56:13;3.13;;;2.40;;
15952;SDS011;8075;47.766;8.846;2023-04-25T07:58:39;2.92;;;2.17;;
15952;SDS011;8075;47.766;8.846;2023-04-25T08:01:05;2.75;;;2.50;;
15952;SDS011;8075;47.766;8.846;2023-04-25T08:03:31;2.90;;;2.63;;
15952;SDS011;8075;47.766;8.846;2023-04-25T08:05:57;3.35;;;3.05;;
15952;SDS011;8075;47.766;8.846;2023-04-25T08:08:23;3.60;;;3.30;;
15952;SDS011;8075;47.766;8.846;2023-04-25T08:10:49;3.77;;;3.33;;
15952;SDS011;8075;47.766;8.846;2023-04-25T08:13:15;2.70;;;2.50;;
15952;SDS011;8075;47.766;8.846;2023-04-25T08:15:41;4.00;;;2.70;;
15952;SDS011;8075;47.766;8.846;2023-04-25T08:18:07;3.00;;;2.58;;
15952;SDS011;8075;47.766;8.846;2023-04-25T08:20:33;3.60;;;2.78;;
15952;SDS011;8075;47.766;8.846;2023-04-25T08:22:59;3.00;;;2.75;;
15952;SDS011;8075;47.766;8.846;2023-04-25T08:25:25;3.50;;;3.20;;
15952;SDS011;8075;47.766;8.846;2023-04-25T08:27:51;3.90;;;3.60;;
15952;SDS011;8075;47.766;8.846;2023-04-25T08:30:17;4.47;;;4.07;;
15952;SDS011;8075;47.766;8.846;2023-04-25T08:32:44;4.07;;;3.67;;
15952;SDS011;8075;47.766;8.846;2023-04-25T08:35:10;4.32;;;3.92;;
15952;SDS011;8075;47.766;8.846;2023-04-25T08:37:36;3.27;;;3.07;;
15952;SDS011;8075;47.766;8.846;2023-04-25T08:40:03;4.28;;;3.88;;
15952;SDS011;8075;47.766;8.846;2023-04-25T08:42:32;4.00;;;3.70;;
15952;SDS011;8075;47.766;8.846;2023-04-25T08:45:02;3.53;;;3.28;;
15952;SDS011;8075;47.766;8.846;2023-04-25T08:47:28;4.60;;;4.10;;
15952;SDS011;8075;47.766;8.846;2023-04-25T08:49:55;4.45;;;4.15;;
15952;SDS011;8075;47.766;8.846;2023-04-25T08:52:22;4.25;;;3.95;;
15952;SDS011;8075;47.766;8.846;2023-04-25T08:54:49;4.00;;;3.70;;
15952;SDS011;8075;47.766;8.846;2023-04-25T08:57:16;4.75;;;4.32;;
15952;SDS011;8075;47.766;8.846;2023-04-25T08:59:42;4.85;;;4.40;;
15952;SDS011;8075;47.766;8.846;2023-04-25T09:02:11;4.40;;;4.07;;
15952;SDS011;8075;47.766;8.846;2023-04-25T09:04:41;3.50;;;3.30;;
15952;SDS011;8075;47.766;8.846;2023-04-25T09:07:07;3.55;;;3.25;;
15952;SDS011;8075;47.766;8.846;2023-04-25T09:09:33;3.33;;;3.05;;
15952;SDS011;8075;47.766;8.846;2023-04-25T09:11:59;3.60;;;3.28;;
15952;SDS011;8075;47.766;8.846;2023-04-25T09:14:26;3.55;;;3.25;;
15952;SDS011;8075;47.766;8.846;2023-04-25T09:19:22;3.03;;;2.80;;
15952;SDS011;8075;47.766;8.846;2023-04-25T09:21:53;2.63;;;2.43;;
15952;SDS011;8075;47.766;8.846;2023-04-25T09:24:42;3.45;;;3.03;;
15952;SDS011;8075;47.766;8.846;2023-04-25T09:27:10;2.60;;;2.40;;
15952;SDS011;8075;47.766;8.846;2023-04-25T09:29:37;2.20;;;2.10;;
15952;SDS011;8075;47.766;8.846;2023-04-25T09:32:16;2.30;;;2.10;;
15952;SDS011;8075;47.766;8.846;2023-04-25T09:34:43;1.83;;;1.65;;
15952;SDS011;8075;47.766;8.846;2023-04-25T09:37:10;2.28;;;2.08;;
15952;SDS011;8075;47.766;8.846;2023-04-25T09:39:37;1.98;;;1.80;;
15952;SDS011;8075;47.766;8.846;2023-04-25T09:42:04;2.20;;;2.00;;
15952;SDS011;8075;47.766;8.846;2023-04-25T09:44:30;2.30;;;1.73;;
15952;SDS011;8075;47.766;8.846;2023-04-25T09:46:56;1.85;;;1.60;;
15952;SDS011;8075;47.766;8.846;2023-04-25T09:49:24;2.03;;;1.83;;
15952;SDS011;8075;47.766;8.846;2023-04-25T09:51:54;1.30;;;1.20;;
15952;SDS011;8075;47.766;8.846;2023-04-25T09:54:20;3.00;;;2.70;;
15952;SDS011;8075;47.766;8.846;2023-04-25T09:56:46;1.60;;;1.50;;
15952;SDS011;8075;47.766;8.846;2023-04-25T09:59:13;1.60;;;1.50;;
15952;SDS011;8075;47.766;8.846;2023-04-25T10:01:40;3.13;;;2.92;;
15952;SDS011;8075;47.766;8.846;2023-04-25T10:04:06;1.55;;;1.40;;
15952;SDS011;8075;47.766;8.846;2023-04-25T10:06:35;3.05;;;2.75;;
15952;SDS011;8075;47.766;8.846;2023-04-25T10:09:02;0.70;;;0.68;;
15952;SDS011;8075;47.766;8.846;2023-04-25T10:11:29;0.60;;;0.40;;
15952;SDS011;8075;47.766;8.846;2023-04-25T10:13:56;0.57;;;0.40;;
15952;SDS011;8075;47.766;8.846;2023-04-25T10:16:22;0.30;;;0.30;;
15952;SDS011;8075;47.766;8.846;2023-04-25T10:18:49;0.50;;;0.50;;
15952;SDS011;8075;47.766;8.846;2023-04-25T10:21:15;0.80;;;0.47;;
15952;SDS011;8075;47.766;8.846;2023-04-25T10:23:41;0.50;;;0.40;;
15952;SDS011;8075;47.766;8.846;2023-04-25T10:26:08;0.70;;;0.50;;
15952;SDS011;8075;47.766;8.846;2023-04-25T10:31:33;0.52;;;0.50;;
15952;SDS011;8075;47.766;8.846;2023-04-25T10:33:59;2.25;;;0.65;;
15952;SDS011;8075;47.766;8.846;2023-04-25T10:36:26;0.35;;;0.30;;
15952;SDS011;8075;47.766;8.846;2023-04-25T10:38:58;0.50;;;0.40;;
15952;SDS011;8075;47.766;8.846;2023-04-25T10:41:31;0.40;;;0.30;;
15952;SDS011;8075;47.766;8.846;2023-04-25T10:44:03;0.60;;;0.30;;
15952;SDS011;8075;47.766;8.846;2023-04-25T10:46:29;0.55;;;0.40;;
15952;SDS011;8075;47.766;8.846;2023-04-25T10:48:57;0.63;;;0.40;;
15952;SDS011;8075;47.766;8.846;2023-04-25T10:51:30;0.50;;;0.30;;
15952;SDS011;8075;47.766;8.846;2023-04-25T10:54:04;0.30;;;0.30;;
15952;SDS011;8075;47.766;8.846;2023-04-25T10:59:04;0.30;;;0.30;;
15952;SDS011;8075;47.766;8.846;2023-04-25T11:01:35;0.20;;;0.20;;
15952;SDS011;8075;47.766;8.846;2023-04-25T11:04:01;0.75;;;0.20;;
15952;SDS011;8075;47.766;8.846;2023-04-25T11:09:12;0.15;;;0.15;;
15952;SDS011;8075;47.766;8.846;2023-04-25T11:11:39;0.47;;;0.30;;
15952;SDS011;8075;47.766;8.846;2023-04-25T11:14:05;0.60;;;0.20;;
15952;SDS011;8075;47.766;8.846;2023-04-25T11:16:31;0.40;;;0.40;;
15952;SDS011;8075;47.766;8.846;2023-04-25T11:18:57;0.40;;;0.20;;
15952;SDS011;8075;47.766;8.846;2023-04-25T11:21:27;0.70;;;0.30;;
15952;SDS011;8075;47.766;8.846;2023-04-25T11:23:53;0.20;;;0.20;;
15952;SDS011;8075;47.766;8.846;2023-04-25T11:26:20;0.20;;;0.20;;
15952;SDS011;8075;47.766;8.846;2023-04-25T11:28:46;0.60;;;0.30;;
15952;SDS011;8075;47.766;8.846;2023-04-25T11:31:12;0.20;;;0.20;;
15952;SDS011;8075;47.766;8.846;2023-04-25T11:33:38;0.20;;;0.20;;
15952;SDS011;8075;47.766;8.846;2023-04-25T11:36:06;0.28;;;0.28;;
15952;SDS011;8075;47.766;8.846;2023-04-25T11:38:32;0.20;;;0.20;;
15952;SDS011;8075;47.766;8.846;2023-04-25T11:40:58;0.20;;;0.20;;
15952;SDS011;8075;47.766;8.846;2023-04-25T11:43:25;1.20;;;0.20;;
15952;SDS011;8075;47.766;8.846;2023-04-25T11:45:51;0.28;;;0.28;;
15952;SDS011;8075;47.766;8.846;2023-04-25T11:48:20;0.30;;;0.30;;
15952;SDS011;8075;47.766;8.846;2023-04-25T11:50:46;0.22;;;0.22;;
15952;SDS011;8075;47.766;8.846;2023-04-25T11:53:12;0.30;;;0.30;;
15952;SDS011;8075;47.766;8.846;2023-04-25T11:55:38;0.60;;;0.45;;
15952;SDS011;8075;47.766;8.846;2023-04-25T11:58:05;0.38;;;0.32;;
15952;SDS011;8075;47.766;8.846;2023-04-25T12:00:31;0.40;;;0.30;;
15952;SDS011;8075;47.766;8.846;2023-04-25T12:02:58;0.90;;;0.30;;
15952;SDS011;8075;47.766;8.846;2023-04-25T12:05:25;0.68;;;0.40;;
15952;SDS011;8075;47.766;8.846;2023-04-25T12:07:51;1.00;;;0.40;;
15952;SDS011;8075;47.766;8.846;2023-04-25T12:10:18;0.50;;;0.50;;
15952;SDS011;8075;47.766;8.846;2023-04-25T12:12:44;1.60;;;0.50;;
15952;SDS011;8075;47.766;8.846;2023-04-25T12:17:38;0.53;;;0.50;;
15952;SDS011;8075;47.766;8.846;2023-04-25T12:20:08;0.70;;;0.40;;
15952;SDS011;8075;47.766;8.846;2023-04-25T12:22:34;1.38;;;0.60;;
15952;SDS011;8075;47.766;8.846;2023-04-25T12:25:01;0.40;;;0.30;;
15952;SDS011;8075;47.766;8.846;2023-04-25T12:27:30;0.90;;;0.40;;
15952;SDS011;8075;47.766;8.846;2023-04-25T12:29:56;0.40;;;0.30;;
15952;SDS011;8075;47.766;8.846;2023-04-25T12:32:22;1.85;;;0.75;;
15952;SDS011;8075;47.766;8.846;2023-04-25T12:34:48;0.65;;;0.50;;
15952;SDS011;8075;47.766;8.846;2023-04-25T12:37:14;0.60;;;0.50;;
15952;SDS011;8075;47.766;8.846;2023-04-25T12:39:41;1.02;;;0.50;;
15952;SDS011;8075;47.766;8.846;2023-04-25T12:42:07;1.42;;;0.70;;
15952;SDS011;8075;47.766;8.846;2023-04-25T12:44:36;1.60;;;0.50;;
15952;SDS011;8075;47.766;8.846;2023-04-25T12:47:02;0.80;;;0.50;;
15952;SDS011;8075;47.766;8.846;2023-04-25T12:49:28;0.75;;;0.60;;
15952;SDS011;8075;47.766;8.846;2023-04-25T12:51:54;1.20;;;0.70;;
15952;SDS011;8075;47.766;8.846;2023-04-25T12:54:20;0.70;;;0.50;;
15952;SDS011;8075;47.766;8.846;2023-04-25T12:56:46;1.90;;;0.60;;
15952;SDS011;8075;47.766;8.846;2023-04-25T12:59:12;0.47;;;0.45;;
15952;SDS011;8075;47.766;8.846;2023-04-25T13:01:39;0.82;;;0.52;;
15952;SDS011;8075;47.766;8.846;2023-04-25T13:04:05;0.60;;;0.50;;
15952;SDS011;8075;47.766;8.846;2023-04-25T13:06:31;0.70;;;0.52;;
15952;SDS011;8075;47.766;8.846;2023-04-25T13:08:57;0.60;;;0.50;;
15952;SDS011;8075;47.766;8.846;2023-04-25T13:11:23;1.20;;;0.80;;
15952;SDS011;8075;47.766;8.846;2023-04-25T13:13:49;1.00;;;0.67;;
15952;SDS011;8075;47.766;8.846;2023-04-25T13:16:15;0.70;;;0.52;;
15952;SDS011;8075;47.766;8.846;2023-04-25T13:18:41;0.98;;;0.55;;
15952;SDS011;8075;47.766;8.846;2023-04-25T13:21:09;1.08;;;0.50;;
15952;SDS011;8075;47.766;8.846;2023-04-25T13:23:36;2.03;;;0.77;;
15952;SDS011;8075;47.766;8.846;2023-04-25T13:26:02;0.70;;;0.50;;
15952;SDS011;8075;47.766;8.846;2023-04-25T13:28:28;1.50;;;0.70;;
15952;SDS011;8075;47.766;8.846;2023-04-25T13:30:54;1.20;;;0.70;;
15952;SDS011;8075;47.766;8.846;2023-04-25T13:33:20;1.48;;;0.55;;
15952;SDS011;8075;47.766;8.846;2023-04-25T13:35:47;0.82;;;0.70;;
15952;SDS011;8075;47.766;8.846;2023-04-25T13:38:21;1.40;;;0.60;;
15952;SDS011;8075;47.766;8.846;2023-04-25T13:40:48;0.60;;;0.50;;
15952;SDS011;8075;47.766;8.846;2023-04-25T13:43:14;0.73;;;0.55;;
15952;SDS011;8075;47.766;8.846;2023-04-25T13:45:40;0.60;;;0.50;;
15952;SDS011;8075;47.766;8.846;2023-04-25T13:48:06;2.53;;;0.60;;
15952;SDS011;8075;47.766;8.846;2023-04-25T13:50:32;0.75;;;0.60;;
15952;SDS011;8075;47.766;8.846;2023-04-25T13:52:58;0.95;;;0.70;;
15952;SDS011;8075;47.766;8.846;2023-04-25T13:55:24;2.40;;;0.70;;
15952;SDS011;8075;47.766;8.846;2023-04-25T13:57:50;1.55;;;0.63;;
15952;SDS011;8075;47.766;8.846;2023-04-25T14:00:16;1.73;;;1.37;;
15952;SDS011;8075;47.766;8.846;2023-04-25T14:02:43;2.63;;;1.80;;
15952;SDS011;8075;47.766;8.846;2023-04-25T14:05:09;3.97;;;1.30;;
15952;SDS011;8075;47.766;8.846;2023-04-25T14:07:35;1.20;;;0.90;;
15952;SDS011;8075;47.766;8.846;2023-04-25T14:10:01;0.93;;;0.75;;
15952;SDS011;8075;47.766;8.846;2023-04-25T14:12:27;1.70;;;0.70;;
15952;SDS011;8075;47.766;8.846;2023-04-25T14:14:53;1.65;;;0.70;;
15952;SDS011;8075;47.766;8.846;2023-04-25T14:17:19;1.80;;;0.90;;
15952;SDS011;8075;47.766;8.846;2023-04-25T14:19:45;1.77;;;0.60;;
15952;SDS011;8075;47.766;8.846;2023-04-25T14:22:13;0.73;;;0.60;;
15952;SDS011;8075;47.766;8.846;2023-04-25T14:24:39;0.60;;;0.60;;
15952;SDS011;8075;47.766;8.846;2023-04-25T14:27:05;1.08;;;0.70;;
15952;SDS011;8075;47.766;8.846;2023-04-25T14:29:31;1.02;;;0.68;;
15952;SDS011;8075;47.766;8.846;2023-04-25T14:31:57;0.93;;;0.50;;
15952;SDS011;8075;47.766;8.846;2023-04-25T14:34:24;0.65;;;0.65;;
15952;SDS011;8075;47.766;8.846;2023-04-25T14:36:51;0.73;;;0.60;;
15952;SDS011;8075;47.766;8.846;2023-04-25T14:39:17;0.80;;;0.50;;
15952;SDS011;8075;47.766;8.846;2023-04-25T14:41:43;0.80;;;0.70;;
15952;SDS011;8075;47.766;8.846;2023-04-25T14:44:09;0.80;;;0.50;;
15952;SDS011;8075;47.766;8.846;2023-04-25T14:46:35;1.05;;;0.60;;
15952;SDS011;8075;47.766;8.846;2023-04-25T14:49:02;0.65;;;0.40;;
15952;SDS011;8075;47.766;8.846;2023-04-25T14:51:28;1.10;;;0.30;;
15952;SDS011;8075;47.766;8.846;2023-04-25T14:53:54;0.70;;;0.30;;
15952;SDS011;8075;47.766;8.846;2023-04-25T14:56:20;0.52;;;0.30;;
15952;SDS011;8075;47.766;8.846;2023-04-25T14:58:46;0.33;;;0.30;;
15952;SDS011;8075;47.766;8.846;2023-04-25T15:01:12;0.50;;;0.30;;
15952;SDS011;8075;47.766;8.846;2023-04-25T15:03:39;0.50;;;0.40;;
15952;SDS011;8075;47.766;8.846;2023-04-25T15:06:05;0.35;;;0.30;;
15952;SDS011;8075;47.766;8.846;2023-04-25T15:08:32;0.80;;;0.40;;